createdAt,value
2023-05-19T00:03:11.730Z,68.57
2023-05-19T00:07:18.255Z,68.55
2023-05-19T00:11:20.291Z,68.43
2023-05-19T00:15:22.585Z,69.47
2023-05-19T00:19:27.584Z,68.13
2023-05-19T00:23:30.635Z,69.21
2023-05-19T00:27:32.180Z,69.05
2023-05-19T00:31:33.886Z,69.66
2023-05-19T00:35:35.552Z,69.88
2023-05-19T00:39:38.454Z,69.85
2023-05-19T00:43:40.060Z,71.24
2023-05-19T00:47:41.669Z,71.00
2023-05-19T00:51:43.279Z,72.19
2023-05-19T00:55:47.647Z,71.53
2023-05-19T00:59:49.243Z,71.01
2023-05-19T01:03:50.992Z,71.59
2023-05-19T01:07:52.671Z,70.63
2023-05-19T01:11:55.596Z,70.57
2023-05-19T01:16:05.523Z,70.95
2023-05-19T01:20:14.935Z,70.23
2023-05-19T01:24:41.370Z,71.15
2023-05-19T01:29:07.576Z,69.93
2023-05-19T01:33:13.473Z,70.29
2023-05-19T01:37:16.121Z,70.81
2023-05-19T01:41:18.884Z,70.52
2023-05-19T01:45:21.292Z,70.44
2023-05-19T01:49:24.161Z,71.04
2023-05-19T01:53:26.032Z,72.07
2023-05-19T01:57:33.622Z,71.70
2023-05-19T02:01:48.429Z,71.56
2023-05-19T02:05:59.241Z,72.64
2023-05-19T02:10:05.715Z,72.91
2023-05-19T02:14:21.267Z,72.92
2023-05-19T02:18:23.441Z,73.37
2023-05-19T02:22:26.343Z,73.84
2023-05-19T02:26:28.145Z,73.78
2023-05-19T02:30:29.988Z,74.07
2023-05-19T02:34:31.635Z,74.09
2023-05-19T02:38:34.525Z,74.88
2023-05-19T02:42:36.057Z,74.93
2023-05-19T02:46:37.703Z,75.64
2023-05-19T02:50:39.297Z,75.54
2023-05-19T02:54:42.305Z,75.29
2023-05-19T02:58:44.069Z,77.08
2023-05-19T03:02:45.736Z,76.71
2023-05-19T03:06:47.327Z,76.36
2023-05-19T03:10:50.196Z,77.13
2023-05-19T03:14:51.799Z,76.71
2023-05-19T03:18:53.369Z,76.07
2023-05-19T03:22:54.912Z,74.82
2023-05-19T03:26:57.790Z,74.73
2023-05-19T03:30:59.350Z,74.34
2023-05-19T03:35:00.880Z,73.36
2023-05-19T03:39:02.406Z,73.45
2023-05-19T03:43:05.306Z,72.96
2023-05-19T03:47:07.118Z,73.32
2023-05-19T03:51:14.515Z,73.51
2023-05-19T03:55:16.052Z,73.80
2023-05-19T03:59:18.938Z,74.42
2023-05-19T04:03:20.626Z,75.01
2023-05-19T04:07:22.372Z,74.75
2023-05-19T04:11:23.903Z,74.10
2023-05-19T04:15:26.805Z,73.76
2023-05-19T04:19:28.383Z,72.83
2023-05-19T04:23:29.959Z,73.57
2023-05-19T04:27:31.481Z,73.12
2023-05-19T04:31:34.619Z,72.66
2023-05-19T04:35:36.096Z,72.70
2023-05-19T04:39:37.622Z,73.45
2023-05-19T04:43:39.207Z,72.22
2023-05-19T04:47:42.245Z,71.89
2023-05-19T04:51:43.701Z,71.11
2023-05-19T04:55:45.229Z,71.32
2023-05-19T04:59:46.766Z,71.21
2023-05-19T05:03:49.683Z,71.24
2023-05-19T05:07:51.303Z,71.23
2023-05-19T05:11:53.566Z,70.93
2023-05-19T05:15:55.671Z,71.04
2023-05-19T05:19:59.313Z,70.05
2023-05-19T05:24:01.444Z,69.91
2023-05-19T05:28:03.014Z,69.42
2023-05-19T05:32:05.266Z,67.77
2023-05-19T05:36:08.915Z,68.70
2023-05-19T05:40:11.385Z,68.20
2023-05-19T05:44:12.999Z,68.67
2023-05-19T05:48:15.342Z,69.01
2023-05-19T05:52:20.996Z,68.02
2023-05-19T05:56:23.080Z,67.40
2023-05-19T06:00:24.632Z,66.05
2023-05-19T06:04:26.166Z,66.75
2023-05-19T06:08:29.160Z,65.69
2023-05-19T06:12:30.758Z,63.54
2023-05-19T06:16:32.399Z,64.33
2023-05-19T06:20:34.176Z,65.61
2023-05-19T06:24:39.372Z,67.17
2023-05-19T06:28:41.148Z,66.30
2023-05-19T06:32:44.546Z,64.02
2023-05-19T06:36:46.121Z,64.98
2023-05-19T06:40:49.006Z,62.71
2023-05-19T06:44:50.983Z,60.88
2023-05-19T06:48:52.504Z,59.52
2023-05-19T06:52:54.291Z,58.97
2023-05-19T06:56:57.166Z,55.77
2023-05-19T07:00:58.688Z,57.51
2023-05-19T07:05:00.396Z,59.09
2023-05-19T07:09:01.923Z,56.63
2023-05-19T07:13:05.064Z,55.13
2023-05-19T07:17:06.594Z,49.66
2023-05-19T07:21:08.149Z,51.86
2023-05-19T07:25:10.204Z,50.02
2023-05-19T07:29:13.085Z,52.86
2023-05-19T07:33:14.659Z,50.65
2023-05-19T07:37:16.312Z,50.29
2023-05-19T07:41:17.828Z,51.36
2023-05-19T07:45:20.780Z,52.80
2023-05-19T07:49:22.351Z,49.00
2023-05-19T07:53:23.956Z,52.58
2023-05-19T07:57:25.518Z,49.32
2023-05-19T08:01:29.649Z,50.03
2023-05-19T08:05:31.181Z,50.30
2023-05-19T08:09:32.786Z,46.37
2023-05-19T08:13:34.424Z,45.27
2023-05-19T08:17:37.391Z,45.26
2023-05-19T08:21:38.812Z,46.25
2023-05-19T08:25:40.325Z,42.39
2023-05-19T08:29:41.931Z,42.00
2023-05-19T08:33:45.073Z,44.84
2023-05-19T08:37:46.621Z,41.46
2023-05-19T08:41:48.214Z,41.41
2023-05-19T08:45:50.139Z,44.29
2023-05-19T08:49:56.025Z,47.94
2023-05-19T08:54:04.490Z,46.76
2023-05-19T08:58:06.318Z,45.70
2023-05-19T09:02:10.617Z,46.68
2023-05-19T09:06:13.498Z,44.92
2023-05-19T09:10:14.892Z,48.52
2023-05-19T09:14:16.417Z,48.62
2023-05-19T09:18:17.993Z,49.80
2023-05-19T09:22:21.012Z,49.03
2023-05-19T09:26:22.537Z,48.15
2023-05-19T09:30:24.286Z,48.08
2023-05-19T09:34:26.169Z,48.63
2023-05-19T09:38:29.635Z,50.84
2023-05-19T09:42:37.646Z,50.66
2023-05-19T09:46:47.477Z,49.08
2023-05-19T09:50:49.364Z,48.43
2023-05-19T09:54:53.117Z,48.34
2023-05-19T09:58:54.726Z,49.25
2023-05-19T10:02:56.851Z,49.05
2023-05-19T10:06:59.188Z,48.40
2023-05-19T10:11:03.080Z,48.31
2023-05-19T10:15:05.970Z,49.70
2023-05-19T10:19:07.880Z,48.69
2023-05-19T10:23:09.735Z,49.51
2023-05-19T10:27:14.859Z,48.32
2023-05-19T10:31:21.503Z,49.97
2023-05-19T10:35:37.029Z,50.29
2023-05-19T10:39:43.156Z,50.80
2023-05-19T10:43:59.703Z,51.06
2023-05-19T10:48:01.403Z,48.72
2023-05-19T10:52:03.430Z,49.07
2023-05-19T10:56:05.558Z,47.98
2023-05-19T11:00:27.742Z,46.97
2023-05-19T11:04:40.027Z,50.30
2023-05-19T11:08:41.624Z,48.89
2023-05-19T11:12:45.538Z,50.37
2023-05-19T11:16:51.321Z,51.63
2023-05-19T11:20:56.161Z,49.66
2023-05-19T11:24:57.999Z,50.70
2023-05-19T11:29:00.290Z,50.09
2023-05-19T11:33:03.725Z,48.81
2023-05-19T11:37:06.340Z,48.78
2023-05-19T11:41:07.887Z,50.65
2023-05-19T11:45:10.270Z,51.82
2023-05-19T11:49:14.884Z,51.27
2023-05-19T11:53:18.116Z,49.10
2023-05-19T11:57:20.238Z,50.40
2023-05-19T12:01:23.826Z,50.56
2023-05-19T12:05:27.259Z,50.13
2023-05-19T12:09:28.857Z,50.28
2023-05-19T12:13:30.436Z,50.28
2023-05-19T12:17:32.731Z,49.31
2023-05-19T12:21:36.167Z,50.25
2023-05-19T12:25:37.943Z,50.10
2023-05-19T12:29:40.336Z,50.42
2023-05-19T12:33:42.027Z,47.80
2023-05-19T12:37:44.956Z,49.00
2023-05-19T12:41:46.351Z,48.79
2023-05-19T12:45:48.095Z,48.14
2023-05-19T12:49:56.750Z,49.08
2023-05-19T12:54:02.495Z,48.24
2023-05-19T12:58:06.992Z,48.17
2023-05-19T13:02:08.861Z,47.87
2023-05-19T13:06:10.744Z,49.19
2023-05-19T13:10:13.645Z,50.08
2023-05-19T13:14:15.053Z,50.11
2023-05-19T13:18:17.533Z,50.97
2023-05-19T13:22:19.156Z,50.64
2023-05-19T13:26:22.037Z,50.93
2023-05-19T13:30:23.436Z,51.05
2023-05-19T13:34:24.984Z,49.96
2023-05-19T13:38:26.572Z,50.09
2023-05-19T13:42:29.482Z,50.20
2023-05-19T13:46:44.198Z,50.24
2023-05-19T13:50:47.424Z,49.14
2023-05-19T13:54:49.484Z,49.70
2023-05-19T13:58:52.393Z,50.48
2023-05-19T14:02:53.867Z,50.16
2023-05-19T14:06:55.603Z,50.06
2023-05-19T14:10:57.186Z,49.46
2023-05-19T14:15:00.924Z,48.67
2023-05-19T14:19:02.481Z,49.93
2023-05-19T14:23:04.086Z,50.43
2023-05-19T14:27:06.066Z,51.00
2023-05-19T14:31:12.468Z,50.15
2023-05-19T14:35:14.173Z,50.48
2023-05-19T14:39:15.797Z,50.56
2023-05-19T14:43:17.355Z,50.84
2023-05-19T14:47:20.284Z,50.70
2023-05-19T14:51:21.727Z,51.24
2023-05-19T14:55:23.325Z,48.85
2023-05-19T14:59:25.007Z,48.25
2023-05-19T15:03:27.935Z,50.27
2023-05-19T15:07:29.368Z,51.15
2023-05-19T15:11:30.955Z,50.75
2023-05-19T15:15:32.542Z,51.92
2023-05-19T15:19:35.598Z,51.00
2023-05-19T15:23:37.037Z,53.02
2023-05-19T15:27:38.627Z,53.65
2023-05-19T15:31:40.289Z,53.30
2023-05-19T15:35:43.315Z,53.71
2023-05-19T15:39:45.964Z,51.98
2023-05-19T15:43:47.495Z,53.61
2023-05-19T15:47:49.120Z,53.55
2023-05-19T15:51:52.040Z,53.45
2023-05-19T15:55:53.428Z,54.11
2023-05-19T15:59:54.984Z,54.56
2023-05-19T16:03:56.898Z,54.44
2023-05-19T16:07:59.871Z,53.07
2023-05-19T16:12:01.251Z,53.01
2023-05-19T16:16:02.949Z,53.94
2023-05-19T16:20:05.735Z,52.94
2023-05-19T16:24:08.660Z,53.14
2023-05-19T16:28:10.048Z,55.78
2023-05-19T16:32:11.742Z,57.16
2023-05-19T16:36:13.400Z,58.25
2023-05-19T16:40:16.606Z,57.42
2023-05-19T16:44:18.193Z,57.85
2023-05-19T16:48:19.805Z,58.04
2023-05-19T16:52:21.419Z,57.57
2023-05-19T16:56:24.339Z,58.35
2023-05-19T17:00:25.934Z,58.88
2023-05-19T17:04:29.451Z,58.89
2023-05-19T17:08:32.282Z,58.98
2023-05-19T17:12:35.206Z,59.61
2023-05-19T17:16:37.036Z,60.38
2023-05-19T17:20:38.624Z,60.23
2023-05-19T17:24:40.214Z,61.05
2023-05-19T17:28:43.119Z,62.51
2023-05-19T17:32:44.789Z,62.49
2023-05-19T17:36:46.457Z,63.30
2023-05-19T17:40:48.007Z,63.53
2023-05-19T17:44:50.898Z,64.83
2023-05-19T17:48:52.456Z,64.95
2023-05-19T17:52:54.522Z,65.50
2023-05-19T17:56:58.512Z,65.79
2023-05-19T18:01:01.780Z,66.28
2023-05-19T18:05:04.310Z,66.83
2023-05-19T18:09:06.850Z,66.78
2023-05-19T18:13:10.298Z,66.79
2023-05-19T18:17:13.275Z,66.82
2023-05-19T18:21:14.834Z,67.35
2023-05-19T18:25:16.599Z,67.93
2023-05-19T18:29:18.142Z,68.03
2023-05-19T18:33:22.266Z,68.76
2023-05-19T18:37:26.694Z,69.03
2023-05-19T18:41:28.404Z,69.06
2023-05-19T18:45:29.959Z,69.61
2023-05-19T18:49:33.023Z,69.91
2023-05-19T18:53:34.441Z,70.36
2023-05-19T18:57:35.992Z,70.52
2023-05-19T19:01:37.684Z,71.19
2023-05-19T19:05:40.736Z,71.18
2023-05-19T19:09:42.257Z,71.42
2023-05-19T19:13:43.799Z,72.21
2023-05-19T19:17:45.359Z,72.16
2023-05-19T19:21:48.257Z,72.88
2023-05-19T19:25:50.078Z,72.73
2023-05-19T19:29:51.665Z,72.94
2023-05-19T19:33:53.206Z,73.50
2023-05-19T19:37:56.106Z,73.89
2023-05-19T19:41:57.689Z,74.59
2023-05-19T19:45:59.661Z,74.39
2023-05-19T19:50:01.196Z,75.27
2023-05-19T19:54:04.331Z,75.45
2023-05-19T19:58:05.704Z,75.54
2023-05-19T20:02:07.240Z,75.76
2023-05-19T20:06:08.842Z,76.04
2023-05-19T20:10:12.079Z,76.30
2023-05-19T20:14:13.603Z,76.50
2023-05-19T20:18:15.312Z,76.16
2023-05-19T20:22:16.996Z,75.75
2023-05-19T20:26:19.863Z,75.59
2023-05-19T20:30:21.488Z,75.77
2023-05-19T20:34:23.039Z,75.52
2023-05-19T20:38:24.631Z,75.81
2023-05-19T20:42:27.536Z,76.15
2023-05-19T20:46:29.170Z,75.99
2023-05-19T20:50:30.836Z,76.22
2023-05-19T20:54:32.514Z,76.46
2023-05-19T20:58:35.411Z,76.63
2023-05-19T21:02:37.095Z,77.09
2023-05-19T21:06:38.693Z,77.53
2023-05-19T21:10:40.276Z,77.73
2023-05-19T21:14:43.148Z,77.69
2023-05-19T21:18:44.718Z,78.66
2023-05-19T21:22:46.320Z,78.60
2023-05-19T21:26:47.846Z,78.99
2023-05-19T21:30:50.750Z,79.27
2023-05-19T21:34:52.285Z,79.71
2023-05-19T21:38:53.838Z,79.52
2023-05-19T21:42:55.352Z,80.10
2023-05-19T21:46:58.387Z,79.78
2023-05-19T21:50:59.955Z,79.84
2023-05-19T21:55:01.470Z,79.83
2023-05-19T21:59:03.266Z,79.77
2023-05-19T22:03:06.170Z,79.73
2023-05-19T22:07:07.732Z,80.11
2023-05-19T22:11:09.274Z,80.21
2023-05-19T22:15:11.707Z,80.27
2023-05-19T22:19:14.684Z,79.90
2023-05-19T22:23:16.249Z,79.93
2023-05-19T22:27:18.343Z,79.39
2023-05-19T22:31:19.867Z,79.90
2023-05-19T22:35:22.924Z,80.05
2023-05-19T22:39:24.283Z,79.91
2023-05-19T22:43:25.793Z,80.05
2023-05-19T22:47:27.427Z,80.02
2023-05-19T22:51:30.287Z,80.38
2023-05-19T22:55:32.023Z,80.17
2023-05-19T22:59:33.704Z,80.13
2023-05-19T23:03:35.221Z,80.24
2023-05-19T23:07:38.095Z,80.84
2023-05-19T23:11:39.588Z,80.55
2023-05-19T23:15:41.096Z,80.46
2023-05-19T23:19:42.597Z,80.81
2023-05-19T23:23:45.516Z,80.72
2023-05-19T23:27:47.073Z,80.82
2023-05-19T23:31:48.800Z,80.52
2023-05-19T23:35:50.718Z,80.81
2023-05-19T23:39:53.545Z,81.00
2023-05-19T23:43:55.429Z,81.42
2023-05-19T23:47:57.072Z,81.32
2023-05-19T23:51:58.576Z,82.24
2023-05-19T23:56:01.818Z,82.27
